createdAt,value
2023-02-18T00:21:47.833Z,69.02
2023-02-18T00:22:47.904Z,65.30
2023-02-18T00:23:47.988Z,69.09
2023-02-18T00:24:48.053Z,66.11
2023-02-18T00:25:48.135Z,65.09
2023-02-18T00:26:48.211Z,67.42
2023-02-18T00:27:48.287Z,65.57
2023-02-18T00:28:48.376Z,64.63
2023-02-18T00:29:48.461Z,67.61
2023-02-18T00:30:48.583Z,65.66
2023-02-18T00:31:48.766Z,62.73
2023-02-18T00:32:48.699Z,63.87
2023-02-18T00:33:48.771Z,60.40
2023-02-18T00:34:48.870Z,62.90
2023-02-18T00:35:48.943Z,61.62
2023-02-18T00:36:49.026Z,65.86
2023-02-18T00:37:49.124Z,63.87
2023-02-18T00:38:49.187Z,65.85
2023-02-18T00:39:49.273Z,62.45
2023-02-18T00:40:49.340Z,65.34
2023-02-18T00:41:49.431Z,66.00
2023-02-18T00:42:49.513Z,65.67
2023-02-18T00:43:49.583Z,68.52
2023-02-18T00:44:49.677Z,67.96
2023-02-18T00:45:49.748Z,68.63
2023-02-18T00:46:50.045Z,66.17
2023-02-18T00:47:49.899Z,64.70
2023-02-18T00:48:49.977Z,67.61
2023-02-18T00:49:50.057Z,68.38
2023-02-18T00:50:50.131Z,65.77
2023-02-18T00:51:50.219Z,66.13
2023-02-18T00:53:50.365Z,68.27
2023-02-18T00:54:50.441Z,63.00
2023-02-18T00:55:50.517Z,62.83
2023-02-18T00:56:50.595Z,63.27
2023-02-18T00:57:50.688Z,64.38
2023-02-18T00:58:50.746Z,66.91
2023-02-18T00:59:50.812Z,65.84
2023-02-18T01:00:50.887Z,64.28
2023-02-18T01:01:51.005Z,69.57
2023-02-18T01:02:51.038Z,66.20
2023-02-18T01:03:51.127Z,68.27
2023-02-18T01:04:51.294Z,62.88
2023-02-18T01:05:51.275Z,67.27
2023-02-18T02:37:57.821Z,66.15
2023-02-18T02:38:57.836Z,62.86
2023-02-18T02:39:57.909Z,63.40
2023-02-18T02:40:57.961Z,65.32
2023-02-18T02:41:58.120Z,65.74
2023-02-18T02:42:58.093Z,66.42
2023-02-18T05:44:07.826Z,65.10
2023-02-18T05:45:07.860Z,67.39
2023-02-18T05:46:08.385Z,65.96
2023-02-18T05:47:10.344Z,64.54
2023-02-18T05:48:07.998Z,66.78
2023-02-18T05:49:08.029Z,67.54
2023-02-18T05:50:08.068Z,67.47
2023-02-18T05:51:08.109Z,67.01
2023-02-18T05:52:08.146Z,67.36
2023-02-18T05:53:08.182Z,68.42
2023-02-18T05:54:08.224Z,66.10
2023-02-18T05:55:08.257Z,67.33
2023-02-18T05:57:08.314Z,66.50
2023-02-18T05:58:08.361Z,67.65
2023-02-18T05:59:08.394Z,66.50
2023-02-18T06:00:08.430Z,64.51
2023-02-18T06:01:08.487Z,66.18
2023-02-18T06:02:08.503Z,66.93
2023-02-18T06:03:08.537Z,68.45
2023-02-18T06:04:08.571Z,66.61
2023-02-18T06:05:08.626Z,63.92
2023-02-18T06:06:09.032Z,66.04
2023-02-18T06:07:08.687Z,66.90
2023-02-18T06:08:08.732Z,66.51
2023-02-18T06:09:08.758Z,64.72
2023-02-18T06:10:08.793Z,65.15
2023-02-18T06:11:08.825Z,66.76
2023-02-18T06:12:08.867Z,67.04
2023-02-18T06:13:08.916Z,66.64
2023-02-18T06:14:08.953Z,66.13
2023-02-18T06:15:08.990Z,65.02
2023-02-18T06:16:09.466Z,65.36
2023-02-18T06:17:09.068Z,67.08
2023-02-18T06:18:09.106Z,65.91
2023-02-18T06:19:09.142Z,67.20
2023-02-18T06:20:09.185Z,66.99
2023-02-18T06:21:09.234Z,63.55
2023-02-18T06:22:09.278Z,65.60
2023-02-18T06:23:11.613Z,64.72
2023-02-18T06:24:09.354Z,69.62
2023-02-18T06:25:09.383Z,67.99
2023-02-18T06:26:09.746Z,66.17
2023-02-18T06:27:09.473Z,68.01
2023-02-18T06:28:09.514Z,67.76
2023-02-18T06:29:09.625Z,64.23
2023-02-18T06:30:09.623Z,66.34
2023-02-18T06:31:09.744Z,68.13
2023-02-18T06:32:09.739Z,66.56
2023-02-18T06:33:09.713Z,65.83
2023-02-18T06:34:09.738Z,65.93
2023-02-18T06:35:09.805Z,66.85
2023-02-18T06:36:10.148Z,67.34
2023-02-18T06:37:09.897Z,67.68
2023-02-18T06:38:09.948Z,64.26
2023-02-18T06:39:09.987Z,66.64
2023-02-18T06:40:10.041Z,66.61
2023-02-18T06:41:10.086Z,66.71
2023-02-18T06:42:10.131Z,69.06
2023-02-18T06:43:10.182Z,65.44
2023-02-18T06:44:10.245Z,67.34
2023-02-18T06:45:10.367Z,68.07
2023-02-18T06:46:10.642Z,67.34
2023-02-18T06:47:10.422Z,69.20
2023-02-18T06:48:10.467Z,66.88
2023-02-18T06:49:10.540Z,65.90
2023-02-18T06:50:10.593Z,66.60
2023-02-18T06:51:10.633Z,68.16
2023-02-18T06:52:10.681Z,68.05
2023-02-18T06:53:10.729Z,65.25
2023-02-18T06:54:10.790Z,68.32
2023-02-18T06:55:10.825Z,68.98
2023-02-18T06:56:11.136Z,65.30
2023-02-18T06:57:10.952Z,65.91
2023-02-18T06:58:11.005Z,67.64
2023-02-18T06:59:11.053Z,68.29
2023-02-18T07:00:11.103Z,68.86
2023-02-18T07:01:11.199Z,68.52
2023-02-18T07:02:11.231Z,67.99
2023-02-18T07:03:11.257Z,70.18
2023-02-18T07:04:11.347Z,68.64
2023-02-18T07:05:11.417Z,69.38
2023-02-18T07:06:11.711Z,69.86
2023-02-18T07:07:11.558Z,71.07
2023-02-18T07:08:11.611Z,69.48
2023-02-18T07:09:11.663Z,67.03
2023-02-18T07:10:11.706Z,68.96
2023-02-18T07:11:11.748Z,67.98
2023-02-18T07:12:11.809Z,69.13
2023-02-18T07:13:11.845Z,71.76
2023-02-18T07:14:11.904Z,68.51
2023-02-18T07:15:11.936Z,68.64
2023-02-18T07:16:12.294Z,68.12
2023-02-18T07:17:12.050Z,66.80
2023-02-18T07:18:12.104Z,68.59
2023-02-18T07:19:14.115Z,69.59
2023-02-18T07:20:12.389Z,67.99
2023-02-18T07:21:12.428Z,66.76
2023-02-18T07:22:12.497Z,67.50
2023-02-18T07:23:12.541Z,68.34
2023-02-18T07:24:12.599Z,67.64
2023-02-18T07:25:12.632Z,68.67
2023-02-18T07:26:12.676Z,65.96
2023-02-18T07:27:12.722Z,66.73
2023-02-18T07:28:12.764Z,66.09
2023-02-18T07:29:12.825Z,67.93
2023-02-18T07:30:12.905Z,68.31
2023-02-18T07:31:13.152Z,66.48
2023-02-18T07:32:13.087Z,68.10
2023-02-18T07:33:13.001Z,72.32
2023-02-18T07:34:13.086Z,70.72
2023-02-18T07:35:13.130Z,69.75
2023-02-18T07:36:13.173Z,72.30
2023-02-18T07:37:13.239Z,69.47
2023-02-18T07:38:13.268Z,69.50
2023-02-18T07:39:13.332Z,68.78
2023-02-18T07:40:13.382Z,70.02
2023-02-18T07:41:13.430Z,70.76
2023-02-18T07:42:13.487Z,68.27
2023-02-18T07:43:13.549Z,69.01
2023-02-18T07:44:13.603Z,71.06
2023-02-18T07:45:13.651Z,72.40
2023-02-18T07:46:13.780Z,67.72
2023-02-18T07:47:13.764Z,68.98
2023-02-18T07:48:13.837Z,69.37
2023-02-18T07:49:13.876Z,68.92
2023-02-18T07:50:13.934Z,69.56
2023-02-18T07:51:13.987Z,71.77
2023-02-18T07:52:14.026Z,70.43
2023-02-18T07:53:14.092Z,71.01
2023-02-18T07:54:14.144Z,68.01
2023-02-18T07:55:14.219Z,67.95
2023-02-18T07:56:14.318Z,69.20
2023-02-18T07:57:14.334Z,66.98
2023-02-18T07:58:14.372Z,72.63
2023-02-18T07:59:14.441Z,69.03
2023-02-18T08:00:14.491Z,70.90
2023-02-18T08:01:14.554Z,71.54
2023-02-18T08:02:14.667Z,68.73
2023-02-18T08:03:14.701Z,70.43
2023-02-18T08:04:14.808Z,70.78
2023-02-18T08:05:14.805Z,68.30
2023-02-18T08:06:14.833Z,68.18
2023-02-18T08:07:14.874Z,67.93
2023-02-18T08:08:14.933Z,67.86
2023-02-18T08:09:14.982Z,69.01
2023-02-18T08:10:15.057Z,69.10
2023-02-18T08:11:19.427Z,70.54
2023-02-18T08:12:15.131Z,70.68
2023-02-18T08:13:15.186Z,70.72
2023-02-18T08:14:15.213Z,70.79
2023-02-18T08:15:15.243Z,69.98
2023-02-18T08:16:15.336Z,68.60
2023-02-18T08:17:15.310Z,68.44
2023-02-18T08:18:15.350Z,70.35
2023-02-18T08:19:15.392Z,70.23
2023-02-18T08:20:15.414Z,70.39
2023-02-18T08:21:15.462Z,70.25
2023-02-18T08:22:15.492Z,68.35
2023-02-18T08:23:15.528Z,70.76
2023-02-18T08:24:15.559Z,72.19
2023-02-18T08:25:27.618Z,69.97
2023-02-18T08:26:16.646Z,70.02
2023-02-18T08:27:15.663Z,70.31
2023-02-18T08:28:15.695Z,69.26
2023-02-18T08:29:15.742Z,70.20
2023-02-18T08:30:15.832Z,71.53
2023-02-18T08:31:16.079Z,71.73
2023-02-18T08:32:15.907Z,68.86
2023-02-18T08:33:15.883Z,69.45
2023-02-18T08:34:15.928Z,70.11
2023-02-18T08:35:15.952Z,69.64
2023-02-18T08:36:15.993Z,70.89
2023-02-18T08:37:16.018Z,72.37
2023-02-18T08:38:16.063Z,69.54
2023-02-18T08:39:16.102Z,71.73
2023-02-18T08:40:16.142Z,71.03
2023-02-18T08:41:16.185Z,71.38
2023-02-18T08:42:16.259Z,73.29
2023-02-18T08:43:16.309Z,68.46
2023-02-18T08:44:16.353Z,68.78
2023-02-18T08:45:16.423Z,71.44
2023-02-18T08:46:31.621Z,68.47
2023-02-18T08:48:18.459Z,68.75
2023-02-18T08:48:20.723Z,68.88
2023-02-18T08:49:16.564Z,69.03
2023-02-18T08:50:16.612Z,69.68
2023-02-18T08:51:16.630Z,71.40
2023-02-18T08:52:16.670Z,73.25
2023-02-18T08:53:16.697Z,76.02
2023-02-18T08:54:16.729Z,77.03
2023-02-18T08:55:16.782Z,70.77
2023-02-18T08:56:16.801Z,73.51
2023-02-18T08:57:16.841Z,71.80
2023-02-18T08:58:16.879Z,73.50
2023-02-18T08:59:16.920Z,70.56
2023-02-18T09:00:16.943Z,72.12
2023-02-18T09:01:17.114Z,72.54
2023-02-18T09:02:17.018Z,71.34
2023-02-18T09:03:17.058Z,70.48
2023-02-18T09:04:17.160Z,70.19
2023-02-18T09:05:17.113Z,72.20
2023-02-18T09:06:17.147Z,73.32
2023-02-18T09:07:17.173Z,72.57
2023-02-18T09:08:17.205Z,70.61
2023-02-18T09:09:17.238Z,70.68
2023-02-18T09:10:17.267Z,70.38
2023-02-18T09:11:17.305Z,69.44
2023-02-18T09:12:17.338Z,70.96
2023-02-18T09:13:17.379Z,70.99
2023-02-18T09:14:17.412Z,70.42
2023-02-18T09:15:17.471Z,70.99
2023-02-18T09:16:17.481Z,68.48
2023-02-18T09:17:17.516Z,72.42
2023-02-18T09:18:17.552Z,71.59
2023-02-18T09:19:17.579Z,71.34
2023-02-18T09:20:17.620Z,69.21
2023-02-18T09:21:17.650Z,69.86
2023-02-18T09:22:17.683Z,68.38
2023-02-18T09:23:17.716Z,68.22
2023-02-18T09:24:17.764Z,67.96
2023-02-18T09:25:17.775Z,66.39
2023-02-18T09:26:17.824Z,66.97
2023-02-18T09:27:17.863Z,66.92
2023-02-18T09:28:17.945Z,69.71
2023-02-18T09:29:18.020Z,65.27
2023-02-18T09:30:18.129Z,67.11
2023-02-18T09:31:18.341Z,67.54
2023-02-18T09:32:32.414Z,67.55
2023-02-18T09:33:19.232Z,67.74
2023-02-18T09:34:18.257Z,67.76
2023-02-18T09:35:18.286Z,68.60
2023-02-18T09:36:18.337Z,67.68
2023-02-18T09:37:18.356Z,68.44
2023-02-18T09:38:18.408Z,67.25
2023-02-18T09:39:18.423Z,68.31
2023-02-18T09:40:18.458Z,68.62
2023-02-18T09:41:18.492Z,68.63
2023-02-18T09:42:18.527Z,68.35
2023-02-18T09:43:18.567Z,67.67
2023-02-18T09:44:18.629Z,67.45
2023-02-18T09:45:18.684Z,65.70
2023-02-18T09:46:18.819Z,67.89
2023-02-18T09:47:18.838Z,68.55
2023-02-18T09:48:18.890Z,66.16
2023-02-18T09:49:18.948Z,67.37
2023-02-18T09:50:19.007Z,64.03
2023-02-18T09:51:19.104Z,65.60
2023-02-18T09:52:19.170Z,66.34
2023-02-18T09:53:19.213Z,65.20
2023-02-18T09:54:19.255Z,65.66
2023-02-18T09:55:19.301Z,64.81
2023-02-18T09:56:19.335Z,62.25
2023-02-18T09:57:19.431Z,66.49
2023-02-18T09:58:19.483Z,69.08
2023-02-18T09:59:19.532Z,65.59
2023-02-18T10:00:19.598Z,67.51
2023-02-18T10:01:19.680Z,64.54
2023-02-18T10:02:19.731Z,67.31
2023-02-18T10:03:19.786Z,65.87
2023-02-18T10:04:19.838Z,64.41
2023-02-18T10:05:19.907Z,64.81
2023-02-18T10:06:19.976Z,65.80
2023-02-18T10:07:20.052Z,63.31
2023-02-18T10:08:20.113Z,67.41
2023-02-18T10:09:20.162Z,64.29
2023-02-18T10:10:20.211Z,66.04
2023-02-18T10:11:20.297Z,65.74
2023-02-18T10:12:20.345Z,67.33
2023-02-18T10:13:20.443Z,63.94
2023-02-18T10:14:20.548Z,66.80
2023-02-18T10:15:20.631Z,64.35
2023-02-18T10:16:20.728Z,65.46
2023-02-18T10:17:20.802Z,63.11
2023-02-18T10:18:20.873Z,64.73
2023-02-18T10:19:20.958Z,64.03
2023-02-18T10:20:21.064Z,64.39
2023-02-18T10:21:21.139Z,63.65
2023-02-18T10:22:21.251Z,64.42
2023-02-18T10:23:21.343Z,65.45
2023-02-18T10:24:21.426Z,61.72
2023-02-18T10:25:21.519Z,64.69
2023-02-18T10:26:21.611Z,62.45
2023-02-18T10:27:21.676Z,64.38
2023-02-18T10:28:21.744Z,65.38
2023-02-18T10:29:22.169Z,65.41
2023-02-18T10:30:21.936Z,64.76
2023-02-18T10:31:22.051Z,62.75
2023-02-18T10:32:22.107Z,65.06
2023-02-18T10:33:22.205Z,66.19
2023-02-18T10:34:22.282Z,67.77
2023-02-18T10:35:22.398Z,65.30
2023-02-18T10:36:22.491Z,65.70
2023-02-18T10:37:22.599Z,66.76
2023-02-18T10:38:22.683Z,64.51
2023-02-18T10:39:22.785Z,63.59
2023-02-18T10:40:22.880Z,62.04
2023-02-18T10:41:22.963Z,63.21
2023-02-18T10:42:23.041Z,63.93
2023-02-18T10:43:23.121Z,64.05
2023-02-18T10:44:23.283Z,65.78
2023-02-18T10:45:23.302Z,63.98
2023-02-18T10:46:23.413Z,64.37
2023-02-18T10:47:23.474Z,62.66
2023-02-18T10:48:23.575Z,63.71
2023-02-18T10:49:23.649Z,61.63
2023-02-18T10:50:23.722Z,63.16
2023-02-18T10:51:23.805Z,65.28
2023-02-18T10:52:23.889Z,64.82
2023-02-18T10:53:23.945Z,63.01
2023-02-18T10:54:24.020Z,63.38
2023-02-18T10:55:24.093Z,64.45
2023-02-18T10:56:24.243Z,63.89
2023-02-18T10:57:24.240Z,63.86
2023-02-18T10:58:24.339Z,61.23
2023-02-18T10:59:24.433Z,65.63
2023-02-18T11:00:24.523Z,65.71
2023-02-18T11:01:24.627Z,64.67
2023-02-18T11:02:24.670Z,64.61
2023-02-18T11:03:24.729Z,63.88
2023-02-18T11:04:24.833Z,65.97
2023-02-18T11:05:24.852Z,64.40
2023-02-18T11:06:24.912Z,63.60
2023-02-18T11:07:24.990Z,64.44
2023-02-18T11:08:25.054Z,64.44
2023-02-18T11:09:25.121Z,65.96
2023-02-18T11:10:25.225Z,63.67
2023-02-18T11:11:25.249Z,63.38
2023-02-18T11:12:25.301Z,63.69
2023-02-18T11:13:25.373Z,66.13
2023-02-18T11:14:25.440Z,63.97
2023-02-18T11:15:25.565Z,66.07
2023-02-18T11:51:27.852Z,62.90
2023-02-18T11:52:27.943Z,61.42
2023-02-18T11:53:28.011Z,59.74
2023-02-18T11:54:28.088Z,62.16
2023-02-18T11:55:28.168Z,62.91
2023-02-18T11:56:28.203Z,60.99
2023-02-18T11:57:28.271Z,62.23
2023-02-18T11:58:28.295Z,62.44
2023-02-18T11:59:28.320Z,59.15
2023-02-18T12:00:28.373Z,62.85
2023-02-18T12:01:28.412Z,62.96
2023-02-18T12:02:28.479Z,63.74
2023-02-18T12:03:28.554Z,62.51
2023-02-18T12:04:28.596Z,64.63
2023-02-18T12:05:28.745Z,61.24
2023-02-18T12:06:28.724Z,62.02
2023-02-18T12:07:28.816Z,60.42
2023-02-18T12:08:28.931Z,60.41
2023-02-18T12:09:28.982Z,61.78
2023-02-18T12:10:29.060Z,62.11
2023-02-18T12:11:29.144Z,64.29
2023-02-18T12:12:29.190Z,61.36
2023-02-18T12:13:29.258Z,61.49
2023-02-18T12:14:29.350Z,60.39
2023-02-18T12:15:29.432Z,63.40
2023-02-18T12:16:29.583Z,64.09
2023-02-18T12:17:29.609Z,60.74
2023-02-18T12:18:29.668Z,64.23
2023-02-18T12:19:29.759Z,59.84
2023-02-18T12:20:29.835Z,61.05
2023-02-18T12:21:29.922Z,60.73
2023-02-18T12:22:30.040Z,60.33
2023-02-18T12:23:30.082Z,62.12
2023-02-18T12:24:30.155Z,62.68
2023-02-18T12:25:30.251Z,61.21
2023-02-18T12:26:30.333Z,59.70
2023-02-18T12:27:30.421Z,61.50
2023-02-18T12:28:30.500Z,60.19
2023-02-18T12:29:30.604Z,59.15
2023-02-18T12:30:30.713Z,59.89
2023-02-18T12:31:30.885Z,61.55
2023-02-18T12:32:30.912Z,62.08
2023-02-18T12:33:31.022Z,61.58
2023-02-18T12:34:31.113Z,62.09
2023-02-18T12:35:31.177Z,62.10
2023-02-18T12:36:31.253Z,60.31
2023-02-18T12:37:31.337Z,61.56
2023-02-18T12:38:31.413Z,62.23
2023-02-18T12:39:31.513Z,63.76
2023-02-18T12:40:31.591Z,61.14
2023-02-18T12:41:31.691Z,60.97
2023-02-18T12:42:31.760Z,62.73
2023-02-18T12:43:31.872Z,62.49
2023-02-18T12:44:31.959Z,63.45
2023-02-18T12:45:32.048Z,60.94
2023-02-18T12:46:32.171Z,65.10
2023-02-18T12:47:32.247Z,64.07
2023-02-18T12:48:32.319Z,65.53
2023-02-18T13:49:37.881Z,62.31
2023-02-18T13:50:37.963Z,62.64
2023-02-18T13:51:38.064Z,61.58
2023-02-18T13:52:38.160Z,60.23
2023-02-18T13:53:38.256Z,61.28
2023-02-18T13:54:38.357Z,61.22
2023-02-18T13:55:38.475Z,60.50
2023-02-18T13:56:38.566Z,61.18
2023-02-18T13:57:38.661Z,63.74
2023-02-18T13:58:38.749Z,61.60
2023-02-18T13:59:38.857Z,58.74
2023-02-18T14:00:38.977Z,61.72
2023-02-18T14:01:39.038Z,58.99
2023-02-18T14:02:39.247Z,58.66
2023-02-18T14:03:39.252Z,61.66
2023-02-18T14:04:39.333Z,62.61
2023-02-18T14:05:39.442Z,61.18
2023-02-18T14:06:39.529Z,59.20
2023-02-18T14:07:39.636Z,60.41
2023-02-18T14:08:39.739Z,60.44
2023-02-18T14:09:39.811Z,61.16
2023-02-18T14:10:39.906Z,59.78
2023-02-18T14:11:39.994Z,59.88
2023-02-18T14:12:40.091Z,60.49
2023-02-18T15:37:47.861Z,53.09
2023-02-18T15:38:47.929Z,52.81
2023-02-18T15:39:48.019Z,49.40
2023-02-18T15:40:48.098Z,55.17
2023-02-18T15:41:48.188Z,56.11
2023-02-18T15:42:48.270Z,51.72
2023-02-18T15:43:48.379Z,53.87
2023-02-18T15:44:48.449Z,50.54
2023-02-18T15:45:48.567Z,52.89
2023-02-18T15:46:48.669Z,51.57
2023-02-18T15:47:48.733Z,54.48
2023-02-18T15:48:48.837Z,55.95
2023-02-18T15:49:48.937Z,58.11
2023-02-18T15:50:49.018Z,53.43
2023-02-18T15:51:49.083Z,55.38
2023-02-18T15:52:49.186Z,55.65
2023-02-18T15:53:49.282Z,53.80
2023-02-18T15:54:49.357Z,53.31
2023-02-18T15:55:49.466Z,57.48
2023-02-18T15:56:49.572Z,56.65
2023-02-18T15:57:49.669Z,54.86
2023-02-18T15:58:49.773Z,53.96
2023-02-18T15:59:50.771Z,56.11
2023-02-18T16:00:49.978Z,52.50
2023-02-18T16:01:50.077Z,55.78
2023-02-18T16:02:50.146Z,56.16
2023-02-18T16:03:50.234Z,58.36
2023-02-18T16:04:50.323Z,56.40
2023-02-18T16:05:50.439Z,57.33
2023-02-18T16:06:50.515Z,55.51
2023-02-18T16:08:50.711Z,57.21
2023-02-18T16:21:51.979Z,60.19
2023-02-18T17:23:57.814Z,63.54
2023-02-18T17:27:58.190Z,62.41
2023-02-18T17:28:58.286Z,62.75
2023-02-18T17:29:58.388Z,60.55
2023-02-18T17:30:58.547Z,63.43
2023-02-18T17:31:58.558Z,64.76
2023-02-18T17:32:59.053Z,62.62
2023-02-18T17:33:58.756Z,62.45
2023-02-18T17:34:58.836Z,63.56
2023-02-18T17:35:58.933Z,62.34
2023-02-18T19:07:07.868Z,57.16
2023-02-18T19:08:07.975Z,61.85
2023-02-18T19:09:10.635Z,59.61
2023-02-18T19:10:08.096Z,60.72
2023-02-18T19:11:08.456Z,56.84
2023-02-18T19:12:08.182Z,59.91
2023-02-18T19:13:08.222Z,60.64
2023-02-18T19:14:08.246Z,59.55
2023-02-18T19:15:08.290Z,55.89
2023-02-18T19:16:08.381Z,54.45
2023-02-18T19:17:08.361Z,57.89
2023-02-18T19:18:08.391Z,54.96
2023-02-18T19:19:08.430Z,53.02
2023-02-18T19:20:08.466Z,55.12
2023-02-18T21:26:17.874Z,51.91
2023-02-18T21:27:17.921Z,52.80
2023-02-18T21:36:18.786Z,54.63
2023-02-18T21:37:18.893Z,54.53
2023-02-18T21:38:18.984Z,55.37
2023-02-18T21:39:19.070Z,56.60
2023-02-18T21:40:19.154Z,54.46
2023-02-18T21:41:19.256Z,52.81
2023-02-18T21:42:19.360Z,53.28
2023-02-18T21:43:19.452Z,51.99
2023-02-18T21:44:21.641Z,52.61
2023-02-18T21:46:19.664Z,52.95
2023-02-18T21:47:19.626Z,53.33
2023-02-18T21:48:19.683Z,54.57
2023-02-18T21:49:19.692Z,53.14
2023-02-18T21:50:19.731Z,54.13
2023-02-18T21:51:19.757Z,53.21
2023-02-18T21:52:19.793Z,51.09
2023-02-18T21:53:19.838Z,53.10
2023-02-18T21:54:19.916Z,52.12
2023-02-18T21:55:20.010Z,52.32
2023-02-18T21:56:20.044Z,53.79
2023-02-18T23:20:27.814Z,51.99
2023-02-18T23:21:27.905Z,53.56
2023-02-18T23:22:27.990Z,53.15
2023-02-18T23:23:28.110Z,50.41
2023-02-18T23:24:28.177Z,53.64
2023-02-18T23:25:28.278Z,52.11
2023-02-18T23:26:28.364Z,49.87
2023-02-18T23:27:28.459Z,51.90
2023-02-18T23:28:28.546Z,50.92
2023-02-18T23:29:28.640Z,51.03
2023-02-18T23:30:28.827Z,51.17
2023-02-18T23:31:28.914Z,50.67
2023-02-18T23:32:28.987Z,50.35
2023-02-18T23:33:29.012Z,52.35
2023-02-18T23:34:29.092Z,50.25
2023-02-18T23:35:29.190Z,51.18
2023-02-18T23:36:29.285Z,51.09
2023-02-18T23:37:29.370Z,50.70
2023-02-18T23:38:29.487Z,50.82
2023-02-18T23:39:29.708Z,52.44
2023-02-18T23:40:29.654Z,49.92
2023-02-18T23:41:29.749Z,53.23
2023-02-18T23:42:29.840Z,52.03
2023-02-18T23:43:29.928Z,53.59
2023-02-18T23:44:30.022Z,51.90
2023-02-18T23:45:30.112Z,54.10
2023-02-18T23:46:30.198Z,51.99
2023-02-18T23:47:30.299Z,53.27
2023-02-18T23:48:30.391Z,51.96
2023-02-18T23:49:30.485Z,53.11
2023-02-18T23:50:30.579Z,50.24
2023-02-18T23:51:30.670Z,48.99
2023-02-18T23:52:30.769Z,51.20
2023-02-18T23:53:30.849Z,50.76
2023-02-18T23:54:30.955Z,52.68
2023-02-18T23:55:31.046Z,50.56
2023-02-18T23:56:31.145Z,51.98
2023-02-18T23:57:31.242Z,49.36
2023-02-18T23:58:31.343Z,51.37
2023-02-18T23:59:31.418Z,52.86
